Time;durP1;ratioP1;P1;durP2;ratioP2;P2;SDS_P1;SDS_P2;PMS_P1;PMS_P2;Temp;Humidity;BMP_temperature;BMP_pressure;BME280_temperature;BME280_humidity;BME280_pressure;Samples;Min_cycle;Max_cycle;Signal;HPM_P1;HPM_P2
2022/12/03 00:02:21;;;;;;;;;;;15.00;52.20;;;;;;5072694;28;20006;-93
2022/12/03 00:04:47;;;;;;;;;;;14.90;52.30;;;;;;5071714;28;20015;-93
2022/12/03 00:07:13;;;;;;;;;;;14.80;52.30;;;;;;5070489;28;20264;-91
2022/12/03 00:09:38;;;;;;;;;;;14.80;52.40;;;;;;5072806;28;20298;-93
2022/12/03 00:12:04;;;;;;;;;;;14.70;52.40;;;;;;5072283;28;19908;-92
2022/12/03 00:14:29;;;;;;;;;;;14.70;53.00;;;;;;5073228;28;20163;-93
2022/12/03 00:16:55;;;;;;;;;;;14.60;52.60;;;;;;5071854;28;19919;-93
2022/12/03 00:19:21;;;;;;;;;;;14.60;52.60;;;;;;5071479;28;20023;-93
2022/12/03 00:21:46;;;;;;;;;;;14.50;52.70;;;;;;5072050;28;19934;-93
2022/12/03 00:24:12;;;;;;;;;;;14.50;52.80;;;;;;5072425;28;20003;-93
2022/12/03 00:26:37;;;;;;;;;;;14.40;52.80;;;;;;5070581;28;20270;-93
2022/12/03 00:29:03;;;;;;;;;;;14.30;52.80;;;;;;5071247;28;19962;-93
2022/12/03 00:31:29;;;;;;;;;;;14.30;52.80;;;;;;5072079;28;19909;-92
2022/12/03 00:33:55;;;;;;;;;;;14.30;52.80;;;;;;5071924;28;20182;-93
2022/12/03 00:36:20;;;;;;;;;;;14.20;52.90;;;;;;5071491;28;19909;-93
2022/12/03 00:38:46;;;;;;;;;;;14.20;52.90;;;;;;5071240;28;19924;-92
2022/12/03 00:41:12;;;;;;;;;;;14.20;52.90;;;;;;5071442;28;19916;-93
2022/12/03 00:43:40;;;;;;;;;;;14.10;52.90;;;;;;5071797;28;19959;-93
2022/12/03 00:46:09;;;;;;;;;;;14.10;52.90;;;;;;5072394;28;19974;-92
2022/12/03 00:48:38;;;;;;;;;;;14.10;53.00;;;;;;5071999;28;20258;-92
2022/12/03 00:51:03;;;;;;;;;;;14.10;53.00;;;;;;5072790;28;19933;-93
2022/12/03 00:53:29;;;;;;;;;;;14.10;53.00;;;;;;5072542;28;19974;-93
2022/12/03 00:55:55;;;;;;;;;;;14.10;52.90;;;;;;5071097;28;19919;-93
2022/12/03 00:58:23;;;;;;;;;;;14.10;53.00;;;;;;5071813;28;19909;-93
2022/12/03 01:00:52;;;;;;;;;;;14.10;52.90;;;;;;5073689;28;20187;-93
2022/12/03 01:03:21;;;;;;;;;;;14.10;52.90;;;;;;5075502;28;19916;-93
2022/12/03 01:05:46;;;;;;;;;;;14.10;52.80;;;;;;5074212;28;19913;-92
2022/12/03 01:08:12;;;;;;;;;;;14.10;52.80;;;;;;5077747;28;19909;-93
2022/12/03 01:10:37;;;;;;;;;;;14.10;52.80;;;;;;5075524;28;19935;-93
2022/12/03 01:13:06;;;;;;;;;;;14.10;52.80;;;;;;5075524;28;20187;-93
2022/12/03 01:15:31;;;;;;;;;;;14.10;52.80;;;;;;5076235;28;19915;-92
2022/12/03 01:17:57;;;;;;;;;;;14.10;52.80;;;;;;5075033;28;20015;-93
2022/12/03 01:20:25;;;;;;;;;;;14.10;52.90;;;;;;5074080;28;19905;-93
2022/12/03 01:22:52;;;;;;;;;;;14.10;52.80;;;;;;5075014;28;19908;-93
2022/12/03 01:25:21;;;;;;;;;;;14.10;52.80;;;;;;5073813;28;19913;-93
2022/12/03 01:27:46;;;;;;;;;;;14.00;52.80;;;;;;5074722;28;20312;-93
2022/12/03 01:30:12;;;;;;;;;;;14.00;52.90;;;;;;5073965;28;19964;-93
2022/12/03 01:32:37;;;;;;;;;;;14.00;52.90;;;;;;5073864;28;19909;-93
2022/12/03 01:35:04;;;;;;;;;;;14.00;52.90;;;;;;5075408;28;20240;-93
2022/12/03 01:37:30;;;;;;;;;;;14.00;52.90;;;;;;5075413;28;20357;-93
2022/12/03 01:39:55;;;;;;;;;;;14.00;52.90;;;;;;5075459;28;19912;-92
2022/12/03 01:42:23;;;;;;;;;;;14.00;52.90;;;;;;5075645;28;19909;-93
2022/12/03 01:44:51;;;;;;;;;;;13.90;52.90;;;;;;5075574;28;20175;-93
2022/12/03 01:47:17;;;;;;;;;;;13.90;52.90;;;;;;5076009;28;19909;-92
2022/12/03 01:49:48;;;;;;;;;;;13.90;53.00;;;;;;5075595;28;19978;-93
2022/12/03 01:52:15;;;;;;;;;;;13.90;53.00;;;;;;5075577;28;19923;-93
2022/12/03 01:54:44;;;;;;;;;;;13.90;53.00;;;;;;5076125;28;19915;-93
2022/12/03 01:57:24;;;;;;;;;;;13.90;53.10;;;;;;5075675;28;20278;-92
2022/12/03 01:59:51;;;;;;;;;;;13.90;53.10;;;;;;5075963;28;20205;-93
2022/12/03 02:02:20;;;;;;;;;;;13.90;53.20;;;;;;5077541;28;19909;-92
2022/12/03 02:04:46;;;;;;;;;;;13.80;53.10;;;;;;5078509;28;20224;-93
2022/12/03 02:07:21;;;;;;;;;;;13.80;53.20;;;;;;5077982;28;20162;-93
2022/12/03 02:09:47;;;;;;;;;;;13.80;53.20;;;;;;5077029;28;20135;-93
2022/12/03 02:12:19;;;;;;;;;;;13.80;53.30;;;;;;5074913;28;19920;-92
2022/12/03 02:14:45;;;;;;;;;;;13.80;53.30;;;;;;5076050;28;19915;-93
2022/12/03 02:17:11;;;;;;;;;;;13.80;53.40;;;;;;5075662;28;19909;-93
2022/12/03 02:19:37;;;;;;;;;;;13.70;53.40;;;;;;5076222;28;19915;-92
2022/12/03 02:22:24;;;;;;;;;;;13.80;53.50;;;;;;5076096;28;19909;-92
2022/12/03 02:25:10;;;;;;;;;;;13.70;53.60;;;;;;5075563;28;19920;-92
2022/12/03 02:27:39;;;;;;;;;;;13.70;53.60;;;;;;5075661;28;20113;-93
2022/12/03 02:30:05;;;;;;;;;;;13.70;53.60;;;;;;5002478;28;19908;-93
2022/12/03 02:32:30;;;;;;;;;;;13.70;53.70;;;;;;5072344;28;20179;-93
2022/12/03 02:34:56;;;;;;;;;;;13.70;53.70;;;;;;5073087;28;19909;-93
2022/12/03 02:37:27;;;;;;;;;;;13.70;53.70;;;;;;5073115;28;19931;-93
2022/12/03 02:39:57;;;;;;;;;;;13.70;53.70;;;;;;5072539;28;19909;-93
2022/12/03 02:42:38;;;;;;;;;;;13.60;53.70;;;;;;5073651;28;19977;-92
2022/12/03 02:45:12;;;;;;;;;;;13.60;53.70;;;;;;5074375;28;19919;-93
2022/12/03 02:47:43;;;;;;;;;;;13.60;53.70;;;;;;5074630;28;19908;-93
2022/12/03 02:50:10;;;;;;;;;;;13.50;53.70;;;;;;5075182;28;19913;-93
2022/12/03 02:52:38;;;;;;;;;;;13.50;53.70;;;;;;5075292;28;19909;-93
2022/12/03 02:55:05;;;;;;;;;;;13.50;53.70;;;;;;5075583;28;20308;-93
2022/12/03 02:57:31;;;;;;;;;;;13.50;53.80;;;;;;5076303;28;19951;-93
2022/12/03 03:00:00;;;;;;;;;;;13.50;53.80;;;;;;5076017;28;19914;-93
2022/12/03 03:02:27;;;;;;;;;;;13.50;53.80;;;;;;5076706;28;19908;-92
2022/12/03 03:04:53;;;;;;;;;;;13.50;53.80;;;;;;5076110;28;19947;-92
2022/12/03 03:07:19;;;;;;;;;;;13.40;53.80;;;;;;5075940;28;19908;-93
2022/12/03 03:09:47;;;;;;;;;;;13.40;53.90;;;;;;5075401;28;20231;-93
2022/12/03 03:12:16;;;;;;;;;;;13.40;53.80;;;;;;5075531;28;20281;-93
2022/12/03 03:14:45;;;;;;;;;;;13.40;53.80;;;;;;5075236;28;19917;-92
2022/12/03 03:17:13;;;;;;;;;;;13.40;53.90;;;;;;5075998;28;19920;-92
2022/12/03 03:19:42;;;;;;;;;;;13.40;53.80;;;;;;5075381;28;20294;-92
2022/12/03 03:22:11;;;;;;;;;;;13.40;53.80;;;;;;5075990;28;19909;-92
2022/12/03 03:24:36;;;;;;;;;;;13.40;53.80;;;;;;5074612;28;19938;-93
2022/12/03 03:27:05;;;;;;;;;;;13.40;53.80;;;;;;5075584;28;20178;-93
2022/12/03 03:29:32;;;;;;;;;;;13.30;53.80;;;;;;5076296;28;19908;-93
2022/12/03 03:31:58;;;;;;;;;;;13.30;53.80;;;;;;5076246;28;20170;-92
2022/12/03 03:34:24;;;;;;;;;;;13.30;53.70;;;;;;5075818;28;19912;-93
2022/12/03 03:36:49;;;;;;;;;;;13.30;53.70;;;;;;5076027;28;19920;-92
2022/12/03 03:39:15;;;;;;;;;;;13.30;53.80;;;;;;5076452;28;19909;-92
2022/12/03 03:41:41;;;;;;;;;;;13.30;53.80;;;;;;5076664;28;19932;-93
2022/12/03 03:44:07;;;;;;;;;;;13.30;53.80;;;;;;5075885;28;19946;-93
2022/12/03 03:46:36;;;;;;;;;;;13.30;53.80;;;;;;5076614;28;19959;-93
2022/12/03 03:49:03;;;;;;;;;;;13.30;53.80;;;;;;5073441;28;19916;-93
2022/12/03 03:51:29;;;;;;;;;;;13.20;53.70;;;;;;5074430;28;20270;-93
2022/12/03 03:53:57;;;;;;;;;;;13.20;53.80;;;;;;5074073;28;19974;-92
2022/12/03 03:56:23;;;;;;;;;;;13.20;53.80;;;;;;5072832;28;20296;-93
2022/12/03 03:58:48;;;;;;;;;;;13.20;53.80;;;;;;5072747;28;19908;-92
2022/12/03 04:01:18;;;;;;;;;;;13.20;53.80;;;;;;5073046;28;19912;-93
2022/12/03 04:03:47;;;;;;;;;;;13.10;53.80;;;;;;5072658;28;19912;-93
2022/12/03 04:06:15;;;;;;;;;;;13.20;53.90;;;;;;5071843;28;20206;-92
2022/12/03 04:08:41;;;;;;;;;;;13.10;53.90;;;;;;5071842;28;20274;-92
2022/12/03 04:13:51;;;;;;;;;;;13.10;54.00;;;;;;5073268;28;19935;-93
2022/12/03 04:16:19;;;;;;;;;;;13.10;54.00;;;;;;5072881;28;20278;-93
2022/12/03 04:18:45;;;;;;;;;;;13.10;54.00;;;;;;5073945;28;19924;-93
2022/12/03 04:24:05;;;;;;;;;;;13.00;54.10;;;;;;5074365;28;19935;-93
2022/12/03 04:29:18;;;;;;;;;;;13.00;54.10;;;;;;5074366;28;19919;-92
2022/12/03 04:37:13;;;;;;;;;;;12.90;54.20;;;;;;5076019;28;19977;-92
2022/12/03 04:39:38;;;;;;;;;;;12.90;54.20;;;;;;5078359;28;19908;-94
2022/12/03 04:42:07;;;;;;;;;;;12.90;54.10;;;;;;5077431;28;19909;-93
2022/12/03 04:44:36;;;;;;;;;;;12.90;54.20;;;;;;5078497;28;19908;-93
2022/12/03 04:47:02;;;;;;;;;;;12.90;54.20;;;;;;5078267;28;19913;-93
2022/12/03 04:49:27;;;;;;;;;;;12.90;54.20;;;;;;5078755;28;19908;-94
2022/12/03 04:51:53;;;;;;;;;;;12.80;54.20;;;;;;5077299;28;19926;-93
2022/12/03 04:54:19;;;;;;;;;;;12.80;54.20;;;;;;5077571;28;19908;-91
2022/12/03 04:56:47;;;;;;;;;;;12.80;54.20;;;;;;5076973;28;19973;-93
2022/12/03 04:59:13;;;;;;;;;;;12.70;54.20;;;;;;5077765;28;19909;-92
2022/12/03 05:01:39;;;;;;;;;;;12.70;54.20;;;;;;5078235;28;19919;-93
2022/12/03 05:04:05;;;;;;;;;;;12.70;54.20;;;;;;5078860;28;19920;-92
2022/12/03 05:06:30;;;;;;;;;;;12.60;54.20;;;;;;5078283;28;19912;-92
2022/12/03 05:08:56;;;;;;;;;;;12.60;54.30;;;;;;5078894;28;19923;-92
2022/12/03 05:11:21;;;;;;;;;;;12.60;54.30;;;;;;5078248;28;19912;-92
2022/12/03 05:13:47;;;;;;;;;;;12.60;54.40;;;;;;5078980;28;20307;-92
2022/12/03 05:16:12;;;;;;;;;;;12.50;54.40;;;;;;5076804;28;19982;-92
2022/12/03 05:18:41;;;;;;;;;;;12.50;54.40;;;;;;5078444;28;20380;-92
2022/12/03 05:21:07;;;;;;;;;;;12.40;54.50;;;;;;5076971;28;20254;-93
2022/12/03 05:23:32;;;;;;;;;;;12.40;54.60;;;;;;5076365;28;19923;-93
2022/12/03 05:25:58;;;;;;;;;;;12.40;54.60;;;;;;5075507;28;19912;-93
2022/12/03 05:28:24;;;;;;;;;;;12.30;54.60;;;;;;5076239;28;19908;-93
2022/12/03 05:30:50;;;;;;;;;;;12.30;54.70;;;;;;5075054;28;19908;-93
2022/12/03 05:33:16;;;;;;;;;;;12.20;54.80;;;;;;5075082;28;20006;-94
2022/12/03 05:35:45;;;;;;;;;;;12.20;54.90;;;;;;5074770;28;20057;-93
2022/12/03 05:38:10;;;;;;;;;;;12.30;55.00;;;;;;5074992;28;20124;-93
2022/12/03 05:40:36;;;;;;;;;;;13.30;53.70;;;;;;5073457;28;19956;-93
2022/12/03 05:43:01;;;;;;;;;;;14.00;52.60;;;;;;5073574;28;19909;-93
2022/12/03 05:45:31;;;;;;;;;;;14.50;51.70;;;;;;5073296;28;19916;-93
2022/12/03 05:47:57;;;;;;;;;;;14.80;51.10;;;;;;5074345;28;19908;-93
2022/12/03 05:50:25;;;;;;;;;;;15.10;50.70;;;;;;5073684;28;19959;-92
2022/12/03 05:52:50;;;;;;;;;;;15.30;50.30;;;;;;5075181;28;19908;-93
2022/12/03 05:55:16;;;;;;;;;;;15.50;50.00;;;;;;5074871;28;19919;-93
2022/12/03 05:57:45;;;;;;;;;;;15.80;49.70;;;;;;5074587;28;19908;-93
2022/12/03 06:00:15;;;;;;;;;;;15.90;49.40;;;;;;5074254;28;19995;-92
2022/12/03 06:02:44;;;;;;;;;;;16.00;49.20;;;;;;5073847;28;19908;-92
2022/12/03 06:05:13;;;;;;;;;;;16.10;49.10;;;;;;5074277;28;20004;-93
2022/12/03 06:07:39;;;;;;;;;;;16.30;49.00;;;;;;5074048;28;19951;-93
2022/12/03 06:10:05;;;;;;;;;;;16.40;48.70;;;;;;5075365;28;19959;-92
2022/12/03 06:12:31;;;;;;;;;;;16.50;48.50;;;;;;5076001;28;19963;-93
2022/12/03 06:14:58;;;;;;;;;;;16.60;48.40;;;;;;5076101;28;19908;-92
2022/12/03 06:17:24;;;;;;;;;;;16.70;48.30;;;;;;5073807;28;19909;-92
2022/12/03 06:19:49;;;;;;;;;;;16.80;48.30;;;;;;5073770;28;19999;-92
2022/12/03 06:22:15;;;;;;;;;;;16.80;48.10;;;;;;5075746;28;19912;-93
2022/12/03 06:24:41;;;;;;;;;;;16.90;48.10;;;;;;5075586;28;19934;-92
2022/12/03 06:27:10;;;;;;;;;;;17.00;47.90;;;;;;5075270;28;19913;-92
2022/12/03 06:29:36;;;;;;;;;;;17.20;47.80;;;;;;5074001;28;19909;-93
2022/12/03 06:32:02;;;;;;;;;;;17.20;47.70;;;;;;5073728;28;20178;-92
2022/12/03 06:34:29;;;;;;;;;;;17.30;47.70;;;;;;5074940;28;19909;-92
2022/12/03 06:36:55;;;;;;;;;;;17.30;47.60;;;;;;5075147;28;19920;-93
2022/12/03 06:39:20;;;;;;;;;;;17.30;47.60;;;;;;5074390;28;19908;-92
2022/12/03 06:41:46;;;;;;;;;;;17.30;47.60;;;;;;5072216;28;19955;-93
2022/12/03 06:44:11;;;;;;;;;;;17.30;47.60;;;;;;5072850;28;19939;-93
2022/12/03 06:46:37;;;;;;;;;;;17.30;47.50;;;;;;5071556;28;19913;-92
2022/12/03 06:49:03;;;;;;;;;;;17.40;47.40;;;;;;5071693;28;19909;-93
2022/12/03 06:51:28;;;;;;;;;;;17.50;47.30;;;;;;5070238;28;20007;-93
2022/12/03 06:53:54;;;;;;;;;;;17.60;47.10;;;;;;5071701;28;19970;-93
2022/12/03 06:56:19;;;;;;;;;;;17.60;47.10;;;;;;5073175;28;19908;-93
2022/12/03 06:58:45;;;;;;;;;;;17.70;47.10;;;;;;5070666;28;19982;-93
2022/12/03 07:01:11;;;;;;;;;;;17.60;47.00;;;;;;5071935;28;19912;-93
2022/12/03 07:03:36;;;;;;;;;;;17.60;47.00;;;;;;5073983;28;19908;-92
2022/12/03 07:06:02;;;;;;;;;;;17.60;47.10;;;;;;5072619;28;19975;-92
2022/12/03 07:08:30;;;;;;;;;;;17.50;47.10;;;;;;5074022;28;20190;-92
2022/12/03 07:10:59;;;;;;;;;;;17.40;47.10;;;;;;5071431;28;19987;-92
2022/12/03 07:13:27;;;;;;;;;;;17.40;47.20;;;;;;5072441;28;19909;-92
2022/12/03 07:15:53;;;;;;;;;;;17.30;47.30;;;;;;5073497;28;19974;-93
2022/12/03 07:18:18;;;;;;;;;;;17.30;47.40;;;;;;5073464;28;19920;-93
2022/12/03 07:20:44;;;;;;;;;;;17.20;47.40;;;;;;5072793;28;20271;-92
2022/12/03 07:23:09;;;;;;;;;;;17.20;47.30;;;;;;5072723;28;19909;-92
2022/12/03 07:25:38;;;;;;;;;;;17.20;47.30;;;;;;5071907;28;20368;-92
2022/12/03 07:28:04;;;;;;;;;;;17.20;47.30;;;;;;5073581;28;19962;-92
2022/12/03 07:30:29;;;;;;;;;;;17.20;47.30;;;;;;5074367;28;19940;-93
2022/12/03 07:32:55;;;;;;;;;;;17.20;47.20;;;;;;5073570;28;20256;-93
2022/12/03 07:35:20;;;;;;;;;;;17.20;47.20;;;;;;5073542;28;20159;-93
2022/12/03 07:37:46;;;;;;;;;;;17.20;47.30;;;;;;5072049;28;19928;-93
2022/12/03 07:40:15;;;;;;;;;;;17.20;47.20;;;;;;5071213;28;20083;-92
2022/12/03 07:42:43;;;;;;;;;;;17.20;47.30;;;;;;5073823;28;19919;-92
2022/12/03 07:45:09;;;;;;;;;;;17.30;47.20;;;;;;5072877;28;19908;-92
2022/12/03 07:47:35;;;;;;;;;;;17.30;47.10;;;;;;5071560;28;19935;-92
2022/12/03 07:50:00;;;;;;;;;;;17.40;47.00;;;;;;5069396;28;19916;-92
2022/12/03 07:52:26;;;;;;;;;;;17.30;47.00;;;;;;5070285;28;19930;-93
2022/12/03 07:54:52;;;;;;;;;;;17.30;47.00;;;;;;5071445;28;20159;-93
2022/12/03 07:57:20;;;;;;;;;;;17.40;47.00;;;;;;5070686;28;20015;-92
2022/12/03 07:59:49;;;;;;;;;;;17.40;46.90;;;;;;5071524;28;20040;-93
2022/12/03 08:02:17;;;;;;;;;;;17.40;46.90;;;;;;5073037;28;19920;-93
2022/12/03 08:04:43;;;;;;;;;;;17.50;47.20;;;;;;5072358;28;19923;-93
2022/12/03 08:07:08;;;;;;;;;;;17.40;46.90;;;;;;5070572;28;19935;-93
2022/12/03 08:09:34;;;;;;;;;;;17.40;46.90;;;;;;5069723;28;19973;-92
2022/12/03 08:12:01;;;;;;;;;;;17.50;46.90;;;;;;5070082;28;19959;-93
2022/12/03 08:14:27;;;;;;;;;;;17.50;46.80;;;;;;5070055;28;19919;-92
2022/12/03 08:16:53;;;;;;;;;;;17.50;46.70;;;;;;5069789;28;19908;-92
2022/12/03 08:19:21;;;;;;;;;;;17.60;46.70;;;;;;5069083;28;20015;-93
2022/12/03 08:21:50;;;;;;;;;;;17.60;46.70;;;;;;5069635;28;19912;-92
2022/12/03 08:24:22;;;;;;;;;;;17.60;46.70;;;;;;5069853;28;19916;-92
2022/12/03 08:26:48;;;;;;;;;;;17.60;46.70;;;;;;5070728;28;20004;-92
2022/12/03 08:29:15;;;;;;;;;;;17.60;46.70;;;;;;5068031;28;19966;-92
2022/12/03 08:31:44;;;;;;;;;;;17.60;46.60;;;;;;5069327;28;20103;-92
2022/12/03 08:34:17;;;;;;;;;;;17.60;46.60;;;;;;5070186;28;19912;-93
2022/12/03 08:36:43;;;;;;;;;;;17.70;46.90;;;;;;5071161;28;19909;-92
2022/12/03 08:39:27;;;;;;;;;;;17.70;46.50;;;;;;5070517;28;19924;-92
2022/12/03 08:44:41;;;;;;;;;;;17.70;46.50;;;;;;5071325;28;19924;-93
2022/12/03 08:47:17;;;;;;;;;;;17.60;46.50;;;;;;5072038;28;19977;-92
2022/12/03 08:49:58;;;;;;;;;;;17.60;46.50;;;;;;5071149;28;19916;-92
2022/12/03 08:52:32;;;;;;;;;;;17.60;46.50;;;;;;5071575;28;19909;-92
2022/12/03 08:55:09;;;;;;;;;;;17.60;46.60;;;;;;5073599;28;19908;-92
2022/12/03 08:57:34;;;;;;;;;;;17.60;46.50;;;;;;5072176;28;19905;-93
2022/12/03 09:00:00;;;;;;;;;;;17.60;46.50;;;;;;5070856;28;20314;-92
2022/12/03 09:02:31;;;;;;;;;;;17.60;46.50;;;;;;5070460;28;20127;-93
2022/12/03 09:05:01;;;;;;;;;;;17.60;46.60;;;;;;5070906;28;19909;-93
2022/12/03 09:07:27;;;;;;;;;;;17.60;46.60;;;;;;5069602;28;19924;-92
2022/12/03 09:09:54;;;;;;;;;;;17.50;46.70;;;;;;5067872;28;19963;-92
2022/12/03 09:12:22;;;;;;;;;;;17.50;46.90;;;;;;5069044;28;19919;-93
2022/12/03 09:14:51;;;;;;;;;;;17.50;47.00;;;;;;5069933;28;20015;-93
2022/12/03 09:17:16;;;;;;;;;;;17.50;47.10;;;;;;5068094;28;20117;-93
2022/12/03 09:19:44;;;;;;;;;;;17.50;47.20;;;;;;5070377;28;20198;-93
2022/12/03 09:22:10;;;;;;;;;;;17.50;47.20;;;;;;5074479;28;19920;-93
2022/12/03 09:24:38;;;;;;;;;;;17.60;47.30;;;;;;5075868;28;20251;-93
2022/12/03 09:27:04;;;;;;;;;;;17.60;47.30;;;;;;5074774;28;19935;-93
2022/12/03 09:29:30;;;;;;;;;;;17.60;47.40;;;;;;5075547;28;19916;-93
2022/12/03 09:31:55;;;;;;;;;;;17.60;47.50;;;;;;5076709;28;19916;-93
2022/12/03 09:34:21;;;;;;;;;;;17.70;47.60;;;;;;5073024;28;20026;-92
2022/12/03 09:36:49;;;;;;;;;;;17.80;47.70;;;;;;5076280;28;19909;-93
2022/12/03 09:39:17;;;;;;;;;;;17.80;47.60;;;;;;5076639;28;19920;-93
2022/12/03 09:41:46;;;;;;;;;;;17.80;47.60;;;;;;5073974;28;19908;-92
2022/12/03 09:44:12;;;;;;;;;;;17.90;47.60;;;;;;5074190;28;19908;-93
2022/12/03 09:46:38;;;;;;;;;;;17.90;47.60;;;;;;5074217;28;20205;-93
2022/12/03 09:49:05;;;;;;;;;;;17.90;47.70;;;;;;5075852;28;19909;-93
2022/12/03 09:51:35;;;;;;;;;;;17.90;47.70;;;;;;5074318;28;19916;-93
2022/12/03 09:54:01;;;;;;;;;;;18.00;47.80;;;;;;5072551;28;19920;-93
2022/12/03 09:56:27;;;;;;;;;;;18.00;47.80;;;;;;5071834;28;19908;-92
2022/12/03 09:58:55;;;;;;;;;;;17.90;47.90;;;;;;5071637;28;20281;-93
2022/12/03 10:01:22;;;;;;;;;;;17.90;47.90;;;;;;5073558;28;19908;-93
2022/12/03 10:03:51;;;;;;;;;;;18.00;48.00;;;;;;5073112;28;19956;-93
2022/12/03 10:06:22;;;;;;;;;;;18.00;47.90;;;;;;5072685;28;19924;-93
2022/12/03 10:08:48;;;;;;;;;;;18.00;48.00;;;;;;5073714;28;19967;-93
2022/12/03 10:11:15;;;;;;;;;;;18.00;47.90;;;;;;5074368;28;19948;-93
2022/12/03 10:13:41;;;;;;;;;;;18.00;48.00;;;;;;5072581;28;19947;-93
2022/12/03 10:16:08;;;;;;;;;;;17.90;48.00;;;;;;5072639;28;19908;-93
2022/12/03 10:18:34;;;;;;;;;;;17.90;48.10;;;;;;5071128;28;19915;-93
2022/12/03 10:21:00;;;;;;;;;;;17.80;48.20;;;;;;5071358;28;19908;-93
2022/12/03 10:23:29;;;;;;;;;;;17.80;48.20;;;;;;5073485;28;20301;-93
2022/12/03 10:25:57;;;;;;;;;;;17.80;48.20;;;;;;5073645;28;19912;-93
2022/12/03 10:28:42;;;;;;;;;;;17.70;48.30;;;;;;5075206;28;20266;-92
2022/12/03 10:31:12;;;;;;;;;;;17.60;48.40;;;;;;5074484;28;19944;-93
2022/12/03 10:33:51;;;;;;;;;;;17.50;48.60;;;;;;5072119;28;19912;-93
2022/12/03 10:36:36;;;;;;;;;;;17.30;48.80;;;;;;5071143;28;19909;-93
2022/12/03 10:39:07;;;;;;;;;;;17.10;49.10;;;;;;5073652;28;19977;-93
2022/12/03 10:41:32;;;;;;;;;;;16.90;49.40;;;;;;5074262;28;19909;-93
2022/12/03 10:44:13;;;;;;;;;;;16.70;49.60;;;;;;5073318;28;19935;-93
2022/12/03 10:46:39;;;;;;;;;;;16.70;49.80;;;;;;5071660;28;19912;-93
2022/12/03 10:49:22;;;;;;;;;;;16.80;49.70;;;;;;5069959;28;20275;-93
2022/12/03 10:51:48;;;;;;;;;;;17.10;49.40;;;;;;5071538;28;19971;-93
2022/12/03 10:54:19;;;;;;;;;;;17.40;48.90;;;;;;5071641;28;19908;-93
2022/12/03 10:56:45;;;;;;;;;;;17.70;49.10;;;;;;5071583;28;19984;-93
2022/12/03 10:59:12;;;;;;;;;;;17.80;48.50;;;;;;5070766;28;20027;-93
2022/12/03 11:01:38;;;;;;;;;;;17.90;48.50;;;;;;5071153;28;19915;-92
2022/12/03 11:04:04;;;;;;;;;;;18.00;48.50;;;;;;5070788;28;19908;-92
2022/12/03 11:06:31;;;;;;;;;;;18.00;48.60;;;;;;5072353;28;19912;-93
2022/12/03 11:08:57;;;;;;;;;;;18.10;48.60;;;;;;5073238;28;19974;-93
2022/12/03 11:11:27;;;;;;;;;;;18.20;48.60;;;;;;5072136;28;19999;-93
2022/12/03 11:13:54;;;;;;;;;;;18.20;48.50;;;;;;5071866;28;19954;-92
2022/12/03 11:16:38;;;;;;;;;;;18.30;48.60;;;;;;5072373;28;19908;-93
2022/12/03 11:19:16;;;;;;;;;;;18.30;48.60;;;;;;5071806;28;19908;-93
2022/12/03 11:22:11;;;;;;;;;;;18.30;48.60;;;;;;5071830;28;19909;-92
2022/12/03 11:24:37;;;;;;;;;;;18.20;48.60;;;;;;5069229;28;19908;-93
2022/12/03 11:27:03;;;;;;;;;;;18.20;48.60;;;;;;5069399;28;20182;-93
2022/12/03 11:29:47;;;;;;;;;;;18.20;48.60;;;;;;5072760;28;19908;-93
2022/12/03 11:32:35;;;;;;;;;;;18.10;48.70;;;;;;5072573;28;20018;-93
2022/12/03 11:35:01;;;;;;;;;;;18.10;48.70;;;;;;5072073;28;19908;-92
2022/12/03 11:37:27;;;;;;;;;;;18.00;48.70;;;;;;5071896;28;19909;-93
2022/12/03 11:40:11;;;;;;;;;;;17.80;48.90;;;;;;5072392;28;19981;-93
2022/12/03 11:42:38;;;;;;;;;;;17.70;49.00;;;;;;5073047;28;19908;-93
2022/12/03 11:45:04;;;;;;;;;;;17.50;49.30;;;;;;5072773;28;19909;-92
2022/12/03 11:47:36;;;;;;;;;;;17.50;49.50;;;;;;5072433;28;19913;-93
2022/12/03 11:50:05;;;;;;;;;;;17.30;49.50;;;;;;5072931;28;20278;-93
2022/12/03 11:52:38;;;;;;;;;;;17.30;49.70;;;;;;5068869;28;20156;-93
2022/12/03 11:55:15;;;;;;;;;;;17.20;49.80;;;;;;5073021;28;19909;-93
2022/12/03 11:57:43;;;;;;;;;;;17.10;49.90;;;;;;5073157;28;20377;-93
2022/12/03 12:00:18;;;;;;;;;;;17.00;49.90;;;;;;5070468;28;19966;-92
2022/12/03 12:02:49;;;;;;;;;;;17.00;49.90;;;;;;5072415;28;19916;-93
2022/12/03 12:05:19;;;;;;;;;;;17.00;49.80;;;;;;5068030;28;19908;-93
2022/12/03 12:07:48;;;;;;;;;;;17.00;49.70;;;;;;5069157;28;19927;-94
2022/12/03 12:10:32;;;;;;;;;;;17.00;49.60;;;;;;5071041;28;19980;-93
2022/12/03 12:13:00;;;;;;;;;;;17.10;49.50;;;;;;5073100;28;20098;-93
2022/12/03 12:15:37;;;;;;;;;;;17.20;49.30;;;;;;5068376;28;19943;-93
2022/12/03 12:18:32;;;;;;;;;;;17.40;49.10;;;;;;5066723;28;19912;-93
2022/12/03 12:21:16;;;;;;;;;;;17.60;48.90;;;;;;4997830;28;19925;-93
2022/12/03 12:23:43;;;;;;;;;;;17.70;48.60;;;;;;5066727;28;19948;-93
2022/12/03 12:26:08;;;;;;;;;;;17.90;48.50;;;;;;5067237;28;20085;-92
2022/12/03 12:28:34;;;;;;;;;;;17.90;48.40;;;;;;5068735;28;20274;-93
2022/12/03 12:31:08;;;;;;;;;;;18.00;48.40;;;;;;5069142;28;19916;-93
2022/12/03 12:33:34;;;;;;;;;;;17.90;48.50;;;;;;5065417;28;20256;-92
2022/12/03 12:36:04;;;;;;;;;;;18.00;48.50;;;;;;5067165;28;19908;-92
2022/12/03 12:38:29;;;;;;;;;;;18.00;48.40;;;;;;5068445;28;19928;-93
2022/12/03 12:40:57;;;;;;;;;;;18.00;48.30;;;;;;5069601;28;20068;-93
2022/12/03 12:43:25;;;;;;;;;;;18.00;48.20;;;;;;5070286;28;20022;-93
2022/12/03 12:45:55;;;;;;;;;;;18.00;48.20;;;;;;5070188;28;20328;-92
2022/12/03 12:48:22;;;;;;;;;;;18.00;48.30;;;;;;5070359;28;19919;-93
2022/12/03 12:50:59;;;;;;;;;;;17.80;48.20;;;;;;5071288;28;19909;-93
2022/12/03 12:53:34;;;;;;;;;;;17.80;48.30;;;;;;5071321;28;19908;-92
2022/12/03 12:56:05;;;;;;;;;;;17.70;48.30;;;;;;5071216;28;19915;-93
2022/12/03 12:58:32;;;;;;;;;;;17.60;48.40;;;;;;5073832;28;19920;-94
2022/12/03 13:00:59;;;;;;;;;;;17.60;48.40;;;;;;5075471;28;19908;-94
2022/12/03 13:03:26;;;;;;;;;;;17.60;48.50;;;;;;5075640;28;19912;-93
2022/12/03 13:05:52;;;;;;;;;;;17.50;48.50;;;;;;5076482;28;19912;-93
2022/12/03 13:08:23;;;;;;;;;;;17.50;48.60;;;;;;5075099;28;19909;-93
2022/12/03 13:10:50;;;;;;;;;;;17.40;48.70;;;;;;5074388;28;19909;-93
2022/12/03 13:13:18;;;;;;;;;;;17.30;48.80;;;;;;5074069;28;19975;-93
2022/12/03 13:15:47;;;;;;;;;;;17.40;48.80;;;;;;5073459;28;19924;-93
2022/12/03 13:18:27;;;;;;;;;;;17.30;48.80;;;;;;5072294;28;19920;-93
2022/12/03 13:20:56;;;;;;;;;;;17.30;48.70;;;;;;5073490;28;20007;-93
2022/12/03 13:23:25;;;;;;;;;;;17.30;48.70;;;;;;5074673;28;20012;-93
2022/12/03 13:25:52;;;;;;;;;;;17.30;48.70;;;;;;5073238;28;19955;-93
2022/12/03 13:28:18;;;;;;;;;;;17.30;48.60;;;;;;5071889;28;20019;-93
2022/12/03 13:30:44;;;;;;;;;;;17.30;48.70;;;;;;5072306;28;20003;-93
2022/12/03 13:33:25;;;;;;;;;;;17.30;48.60;;;;;;5073019;28;19984;-92
2022/12/03 13:35:51;;;;;;;;;;;17.40;48.60;;;;;;5072827;28;19909;-93
2022/12/03 13:38:18;;;;;;;;;;;17.50;48.50;;;;;;5073424;28;20316;-93
2022/12/03 13:40:43;;;;;;;;;;;17.60;48.40;;;;;;5072205;28;19912;-93
2022/12/03 13:43:11;;;;;;;;;;;17.60;48.30;;;;;;5071667;28;20305;-93
2022/12/03 13:45:47;;;;;;;;;;;17.60;48.30;;;;;;5074050;28;20276;-93
2022/12/03 13:48:17;;;;;;;;;;;17.60;49.20;;;;;;5072477;28;19908;-93
2022/12/03 13:50:44;;;;;;;;;;;17.70;50.70;;;;;;5074127;28;20010;-93
2022/12/03 13:53:10;;;;;;;;;;;17.80;51.80;;;;;;5073355;28;19940;-93
2022/12/03 13:55:40;;;;;;;;;;;18.00;52.70;;;;;;5074374;28;19951;-93
2022/12/03 13:58:09;;;;;;;;;;;18.00;53.20;;;;;;5072108;28;20273;-93
2022/12/03 14:00:34;;;;;;;;;;;18.10;53.70;;;;;;5070449;28;19920;-92
2022/12/03 14:03:01;;;;;;;;;;;18.20;53.80;;;;;;5069596;28;19908;-93
2022/12/03 14:05:27;;;;;;;;;;;18.20;53.90;;;;;;5069542;28;20131;-93
2022/12/03 14:07:52;;;;;;;;;;;18.20;54.20;;;;;;5068849;28;19943;-92
2022/12/03 14:10:18;;;;;;;;;;;18.20;54.50;;;;;;5070892;28;20063;-93
2022/12/03 14:12:44;;;;;;;;;;;18.10;55.00;;;;;;5071217;28;20250;-93
2022/12/03 14:15:12;;;;;;;;;;;17.90;54.70;;;;;;5070275;28;19908;-93
2022/12/03 14:17:41;;;;;;;;;;;17.80;54.60;;;;;;5071857;28;19909;-93
2022/12/03 14:20:10;;;;;;;;;;;17.70;54.60;;;;;;5071659;28;19939;-93
2022/12/03 14:22:38;;;;;;;;;;;17.50;54.70;;;;;;5073717;28;19915;-91
2022/12/03 14:25:05;;;;;;;;;;;17.40;54.80;;;;;;5070313;28;19944;-91
2022/12/03 14:27:33;;;;;;;;;;;17.20;55.00;;;;;;5069079;28;19913;-92
2022/12/03 14:30:04;;;;;;;;;;;17.10;55.10;;;;;;5070033;28;19981;-92
2022/12/03 14:32:30;;;;;;;;;;;16.90;55.40;;;;;;5070802;28;19908;-91
2022/12/03 14:34:56;;;;;;;;;;;16.70;55.50;;;;;;5065037;28;20377;-92
2022/12/03 14:37:21;;;;;;;;;;;16.60;55.70;;;;;;5068118;28;19987;-91
2022/12/03 14:39:47;;;;;;;;;;;16.50;55.90;;;;;;5068205;28;20069;-91